Association Sportive et Culturelle de l' Aéroport de Blagnac

Section Vol Moteur

Bienvenue sur le site ASCAB Vol Moteur

LFBO TOULOUSE-BLAGNAC

METAR :
2024/02/29 15:00 LFBO 291500Z AUTO 30005KT 9999 FEW048 SCT140 14/05 Q1011 NOSIG

TAF :
2024/02/29 12:51 TAF TAF LFBO 291100Z 2912/0118 VRB03KT CAVOK BECMG 2912/2914 29005KT TEMPO 2912/2918 BKN035 BECMG 2918/2920 29012KT BKN040 PROB30 TEMPO 2919/2924 27015G25KT TEMPO 2919/0101 4000 RA BKN013 SCT020TCU BECMG 0105/0107 CAVOK TEMPO 0111/0118 SCT025 BKN040